Time;durP1;ratioP1;P1;durP2;ratioP2;P2;SDS_P1;SDS_P2;PMS_P1;PMS_P2;Temp;Humidity;BMP_temperature;BMP_pressure;BME280_temperature;BME280_humidity;BME280_pressure;Samples;Min_cycle;Max_cycle;Signal;HPM_P1;HPM_P2
2021/06/19 00:01:25;;;;;;;6.83;5.30;;;;;;;23.77;51.33;100726.69;4996711;28;20173;-70
2021/06/19 00:03:50;;;;;;;10.63;5.40;;;;;;;23.77;50.86;100726.69;5014153;28;20189;-68
2021/06/19 00:06:16;;;;;;;7.73;5.60;;;;;;;23.69;51.39;100715.81;5013945;28;20204;-68
2021/06/19 00:08:41;;;;;;;8.80;5.83;;;;;;;23.75;51.38;100722.44;5013718;28;20180;-68
2021/06/19 00:11:06;;;;;;;7.40;5.70;;;;;;;23.67;51.23;100720.56;5013957;28;20490;-68
2021/06/19 00:13:32;;;;;;;8.77;5.30;;;;;;;23.64;51.40;100719.03;5013900;28;20176;-68
2021/06/19 00:15:57;;;;;;;5.83;5.20;;;;;;;23.66;51.46;100717.00;4995750;28;20263;-68
2021/06/19 00:18:23;;;;;;;6.10;5.27;;;;;;;23.61;51.46;100718.53;5013280;28;20208;-69
2021/06/19 00:20:49;;;;;;;8.83;5.67;;;;;;;23.59;51.64;100726.00;4995942;28;20195;-68
2021/06/19 00:23:14;;;;;;;6.13;5.43;;;;;;;23.51;51.54;100718.66;4996040;28;20697;-68
2021/06/19 00:25:39;;;;;;;6.20;5.10;;;;;;;23.53;51.84;100716.63;5013645;28;20200;-67
2021/06/19 00:28:05;;;;;;;7.07;5.53;;;;;;;23.52;52.00;100719.50;5013556;28;20203;-69
2021/06/19 00:30:30;;;;;;;6.10;5.17;;;;;;;23.52;51.83;100716.78;5013528;28;20204;-70
2021/06/19 00:32:55;;;;;;;6.40;5.60;;;;;;;23.59;51.39;100721.41;5013410;28;20177;-70
2021/06/19 00:35:21;;;;;;;8.33;5.97;;;;;;;23.57;51.72;100718.00;4995687;28;20199;-70
2021/06/19 00:37:47;;;;;;;7.80;5.83;;;;;;;23.50;52.07;100722.41;4995661;28;20255;-70
2021/06/19 00:40:15;;;;;;;6.70;5.20;;;;;;;23.50;51.75;100722.41;5013747;28;20168;-69
2021/06/19 00:42:40;;;;;;;9.17;6.00;;;;;;;23.50;51.76;100713.38;5013064;28;20633;-68
2021/06/19 00:45:07;;;;;;;7.53;5.67;;;;;;;23.49;51.77;100701.63;5013013;28;20199;-69
2021/06/19 00:47:32;;;;;;;6.73;5.03;;;;;;;23.45;52.08;100713.88;4995461;28;20196;-69
2021/06/19 00:49:57;;;;;;;7.63;5.80;;;;;;;23.39;52.04;100707.19;4995984;28;20189;-68
2021/06/19 00:52:23;;;;;;;10.80;5.87;;;;;;;23.32;52.17;100700.72;4995454;28;20181;-68
2021/06/19 00:54:48;;;;;;;6.33;5.73;;;;;;;23.36;52.24;100704.81;5013216;28;20173;-68
2021/06/19 00:57:13;;;;;;;7.60;5.60;;;;;;;23.43;52.10;100704.19;5013198;28;20649;-70
2021/06/19 00:59:39;;;;;;;8.10;5.37;;;;;;;23.40;51.94;100702.59;4995554;28;20216;-70
2021/06/19 01:02:04;;;;;;;7.40;5.70;;;;;;;23.31;52.60;100706.34;4997364;28;20306;-70
2021/06/19 01:04:30;;;;;;;7.10;5.70;;;;;;;23.31;52.51;100700.91;5016660;28;20207;-70
2021/06/19 01:06:56;;;;;;;8.60;5.77;;;;;;;23.32;51.99;100700.72;4998871;28;20215;-69
2021/06/19 01:09:21;;;;;;;6.80;5.63;;;;;;;23.46;51.72;100712.00;5016450;28;20176;-69
2021/06/19 01:11:47;;;;;;;6.43;5.13;;;;;;;23.52;51.46;100703.16;4999572;28;20177;-70
2021/06/19 01:14:13;;;;;;;6.53;4.93;;;;;;;23.46;51.63;100706.56;4999492;28;20617;-68
2021/06/19 01:16:38;;;;;;;8.70;5.63;;;;;;;23.51;51.46;100709.63;4998805;28;20197;-69
2021/06/19 01:19:04;;;;;;;9.60;5.47;;;;;;;23.53;51.17;100710.31;5016622;28;20539;-69
2021/06/19 01:21:29;;;;;;;7.50;5.67;;;;;;;23.41;51.76;100701.59;5016660;28;20197;-68
2021/06/19 01:23:55;;;;;;;6.20;5.60;;;;;;;23.36;51.73;100696.66;5016653;28;20541;-69
2021/06/19 01:26:23;;;;;;;7.97;5.73;;;;;;;23.43;51.58;100696.00;4998704;28;20193;-68
2021/06/19 01:28:50;;;;;;;6.50;5.80;;;;;;;23.39;51.68;100699.03;4998676;28;20169;-70
2021/06/19 01:31:15;;;;;;;7.60;5.53;;;;;;;23.35;51.75;100689.50;4998674;28;20177;-68
2021/06/19 01:33:43;;;;;;;5.93;5.30;;;;;;;23.34;51.58;100687.78;4998428;28;20177;-70
2021/06/19 01:36:09;;;;;;;7.53;5.40;;;;;;;23.42;51.58;100697.03;5015887;28;20267;-70
2021/06/19 01:38:46;;;;;;;6.23;5.27;;;;;;;23.42;51.84;100694.31;4998506;28;20208;-70
2021/06/19 01:41:18;;;;;;;8.13;5.70;;;;;;;23.44;51.17;100695.84;4998426;28;20641;-70
2021/06/19 01:43:45;;;;;;;7.30;5.70;;;;;;;23.45;51.27;100696.69;4998350;28;20181;-69
2021/06/19 01:46:11;;;;;;;6.13;5.53;;;;;;;23.38;51.92;100694.59;5015987;28;20236;-68
2021/06/19 01:48:36;;;;;;;9.30;5.50;;;;;;;23.33;52.04;100686.09;5015780;28;20181;-69
2021/06/19 01:51:02;;;;;;;7.13;4.83;;;;;;;23.24;52.10;100686.25;4998572;28;20169;-69
2021/06/19 01:53:27;;;;;;;7.17;5.83;;;;;;;23.19;52.44;100683.19;5015806;28;20581;-69
2021/06/19 01:55:53;;;;;;;11.63;5.77;;;;;;;23.17;52.16;100686.06;4998550;28;20195;-69
2021/06/19 01:58:19;;;;;;;6.47;5.80;;;;;;;23.24;52.13;100684.38;5015699;28;20173;-69
2021/06/19 02:00:44;;;;;;;7.00;5.70;;;;;;;23.23;52.22;100681.81;4997991;28;20200;-69
2021/06/19 02:03:10;;;;;;;6.53;5.50;;;;;;;23.17;52.44;100683.34;5015637;28;20634;-69
2021/06/19 02:05:35;;;;;;;7.50;5.30;;;;;;;23.07;52.71;100678.06;5037879;22;20228;-73
2021/06/19 02:08:05;;;;;;;8.07;5.67;;;;;;;23.03;52.84;100673.94;4998192;28;20223;-72
2021/06/19 02:10:35;;;;;;;6.80;5.50;;;;;;;22.96;53.02;100680.19;5015617;28;20177;-72
2021/06/19 02:13:03;;;;;;;9.10;5.43;;;;;;;23.00;52.90;100676.13;5014412;28;20180;-72
2021/06/19 02:15:29;;;;;;;8.23;5.57;;;;;;;23.02;52.49;100674.09;4997807;28;20197;-73
2021/06/19 02:17:55;;;;;;;9.47;5.70;;;;;;;23.04;52.59;100678.38;4997771;28;20180;-72
2021/06/19 02:20:21;;;;;;;8.77;5.20;;;;;;;22.93;52.95;100675.94;4998072;28;20184;-72
2021/06/19 02:22:46;;;;;;;9.17;5.37;;;;;;;22.92;53.19;100673.38;4997730;28;20568;-73
2021/06/19 02:25:13;;;;;;;7.77;6.17;;;;;;;22.89;53.35;100677.28;4997559;28;20664;-72
2021/06/19 02:27:52;;;;;;;9.47;5.93;;;;;;;23.01;52.47;100675.13;4997522;28;20188;-73
2021/06/19 02:30:19;;;;;;;6.23;5.60;;;;;;;22.98;52.78;100673.56;5015304;28;20177;-73
2021/06/19 02:32:44;;;;;;;7.67;5.20;;;;;;;22.92;52.83;100682.41;4997469;28;20200;-73
2021/06/19 02:35:10;;;;;;;6.53;5.53;;;;;;;22.91;52.83;100677.97;4998321;28;20284;-73
2021/06/19 02:37:35;;;;;;;9.90;5.77;;;;;;;22.93;52.65;100677.81;5015933;28;20271;-72
2021/06/19 02:40:01;;;;;;;8.77;5.43;;;;;;;22.92;52.85;100674.25;5014834;28;20649;-72
2021/06/19 02:42:26;;;;;;;6.47;5.10;;;;;;;22.94;52.46;100676.78;5014911;28;20207;-73
2021/06/19 02:44:51;;;;;;;6.30;5.57;;;;;;;22.88;53.03;100669.28;5014789;28;20711;-72
2021/06/19 02:47:17;;;;;;;7.37;5.50;;;;;;;22.81;53.35;100677.25;4997325;28;20276;-72
2021/06/19 02:49:42;;;;;;;9.27;5.97;;;;;;;22.82;53.05;100678.13;5015275;28;20538;-73
2021/06/19 02:52:09;;;;;;;7.03;5.23;;;;;;;22.77;53.06;100681.31;5014982;28;20188;-72
2021/06/19 02:54:35;;;;;;;6.23;5.63;;;;;;;22.73;53.31;100688.09;5014826;28;20207;-72
2021/06/19 02:57:00;;;;;;;8.63;5.87;;;;;;;22.77;53.10;100693.03;4996858;28;20192;-72
2021/06/19 02:59:25;;;;;;;7.30;5.53;;;;;;;22.71;53.35;100699.13;4997296;28;20537;-72
2021/06/19 03:01:51;;;;;;;7.60;5.80;;;;;;;22.74;53.29;100693.38;5014611;28;20181;-72
2021/06/19 03:04:16;;;;;;;16.37;5.80;;;;;;;22.62;53.78;100694.66;4980628;28;20192;-72
2021/06/19 03:06:42;;;;;;;7.97;5.73;;;;;;;22.65;53.72;100699.75;5014054;28;20205;-73
2021/06/19 03:09:09;;;;;;;12.27;5.70;;;;;;;22.62;53.73;100705.53;4996895;28;20185;-72
2021/06/19 03:11:34;;;;;;;11.87;5.73;;;;;;;22.61;53.82;100702.97;4996583;28;20180;-72
2021/06/19 03:13:59;;;;;;;11.80;5.50;;;;;;;22.55;54.37;100704.47;5014345;28;20530;-72
2021/06/19 03:16:25;;;;;;;7.00;5.93;;;;;;;22.46;54.87;100695.41;5014216;28;20193;-73
2021/06/19 03:18:50;;;;;;;8.00;6.10;;;;;;;22.47;55.41;100699.00;4996657;28;20185;-73
2021/06/19 03:21:15;;;;;;;6.90;6.20;;;;;;;22.47;55.66;100696.28;4997204;28;20188;-73
2021/06/19 03:23:41;;;;;;;9.17;6.50;;;;;;;22.48;56.49;100688.97;4996153;28;20592;-72
2021/06/19 03:26:06;;;;;;;8.37;6.07;;;;;;;22.43;56.79;100684.03;5014082;28;20204;-72
2021/06/19 03:28:31;;;;;;;6.17;5.53;;;;;;;22.47;56.68;100682.69;4996991;28;20181;-71
2021/06/19 03:30:56;;;;;;;8.13;6.27;;;;;;;22.51;56.53;100683.19;4996521;28;20665;-72
2021/06/19 03:33:22;;;;;;;8.43;5.73;;;;;;;22.60;55.86;100680.34;5014034;28;20173;-72
2021/06/19 03:35:47;;;;;;;6.67;5.43;;;;;;;22.61;56.12;100692.94;5013788;28;20193;-72
2021/06/19 03:38:13;;;;;;;10.00;5.87;;;;;;;22.63;54.91;100688.19;5013849;28;20181;-72
2021/06/19 03:40:38;;;;;;;8.77;5.63;;;;;;;22.76;53.66;100685.03;4996346;28;20181;-72
2021/06/19 03:43:04;;;;;;;8.17;5.50;;;;;;;22.79;53.43;100679.28;5013872;28;20176;-72
2021/06/19 03:45:31;;;;;;;9.13;6.10;;;;;;;22.93;53.30;100681.38;4995989;28;20546;-72
2021/06/19 03:47:57;;;;;;;9.97;5.47;;;;;;;22.82;53.47;100683.56;4996498;28;20588;-72
2021/06/19 03:50:24;;;;;;;8.47;5.43;;;;;;;22.82;53.60;100680.84;4997478;28;20181;-73
2021/06/19 03:52:49;;;;;;;7.93;5.80;;;;;;;22.83;53.11;100679.81;5013685;28;20173;-73
2021/06/19 03:55:14;;;;;;;8.47;5.43;;;;;;;22.85;53.31;100683.22;5013819;28;20537;-72
2021/06/19 03:57:40;;;;;;;6.07;5.30;;;;;;;22.78;53.58;100680.28;4996432;28;20180;-72
2021/06/19 04:00:08;;;;;;;8.00;5.77;;;;;;;22.67;53.86;100683.28;5014303;28;20184;-72
2021/06/19 04:02:33;;;;;;;8.20;6.00;;;;;;;22.84;54.55;100676.09;4996252;28;20181;-72
2021/06/19 04:04:58;;;;;;;11.27;5.47;;;;;;;22.78;54.62;100674.84;4995995;28;20542;-72
2021/06/19 04:07:23;;;;;;;8.77;5.90;;;;;;;22.65;55.32;100678.00;4995567;28;20209;-71
2021/06/19 04:09:52;;;;;;;9.57;6.30;;;;;;;22.77;54.55;100671.28;4995811;28;20748;-72
2021/06/19 04:12:18;;;;;;;5.73;5.23;;;;;;;22.91;54.11;100680.69;4979920;28;20231;-72
2021/06/19 04:14:43;;;;;;;8.40;5.43;;;;;;;22.95;54.20;100682.06;4995908;28;20177;-73
2021/06/19 04:17:09;;;;;;;7.70;5.47;;;;;;;22.96;54.37;100663.88;5013247;28;20224;-73
2021/06/19 04:19:36;;;;;;;10.13;5.43;;;;;;;23.10;54.04;100670.56;5013398;28;20172;-73
2021/06/19 04:22:03;;;;;;;6.10;5.43;;;;;;;23.14;53.70;100667.34;4996708;28;20522;-73
2021/06/19 04:24:28;;;;;;;5.80;5.20;;;;;;;23.23;53.83;100671.78;4979698;28;20187;-73
2021/06/19 04:26:53;;;;;;;7.97;5.63;;;;;;;23.27;53.53;100666.84;4995731;28;20209;-72
2021/06/19 04:29:19;;;;;;;6.77;5.50;;;;;;;23.30;52.95;100675.53;5013495;28;20184;-73
2021/06/19 04:31:44;;;;;;;6.43;5.70;;;;;;;23.31;53.44;100669.06;5013222;28;20176;-73
2021/06/19 04:34:10;;;;;;;8.70;5.80;;;;;;;23.31;53.82;100666.34;4995984;28;20187;-73
2021/06/19 04:36:35;;;;;;;6.63;5.30;;;;;;;23.31;53.95;100668.22;5015039;28;20185;-73
2021/06/19 04:39:00;;;;;;;11.73;5.90;;;;;;;23.33;54.45;100666.19;5017235;28;20557;-73
2021/06/19 04:41:30;;;;;;;7.47;5.17;;;;;;;23.31;54.77;100665.50;4999525;28;20208;-72
2021/06/19 04:46:21;;;;;;;9.17;5.97;;;;;;;23.33;53.87;100667.03;5017638;28;20205;-72
2021/06/19 04:48:46;;;;;;;12.37;5.80;;;;;;;23.34;54.25;100673.31;4999534;28;20189;-73
2021/06/19 04:51:13;;;;;;;9.47;5.97;;;;;;;23.29;53.11;100678.44;5016973;28;20181;-73
2021/06/19 04:53:38;;;;;;;10.83;6.03;;;;;;;23.34;53.33;100674.19;5016936;28;20669;-73
2021/06/19 04:56:04;;;;;;;6.93;5.70;;;;;;;23.49;52.94;100687.16;4999146;28;20233;-73
2021/06/19 04:58:29;;;;;;;10.53;5.67;;;;;;;23.58;52.94;100678.00;5016774;28;20181;-73
2021/06/19 05:00:54;;;;;;;8.03;5.97;;;;;;;23.68;52.94;100675.97;4982887;28;20227;-73
2021/06/19 05:03:22;;;;;;;7.60;5.37;;;;;;;23.88;53.23;100671.88;5017161;28;20177;-73
2021/06/19 05:05:48;;;;;;;13.73;5.63;;;;;;;24.00;52.80;100670.50;4999125;28;20689;-72
2021/06/19 05:08:14;;;;;;;6.73;5.60;;;;;;;24.07;52.27;100675.25;5016700;28;20177;-73
2021/06/19 05:10:40;;;;;;;8.77;5.57;;;;;;;23.94;52.98;100671.19;4999219;28;20662;-73
2021/06/19 05:13:05;;;;;;;11.20;5.27;;;;;;;24.07;52.52;100672.53;4982749;28;20185;-73
2021/06/19 05:15:30;;;;;;;7.33;5.47;;;;;;;24.09;52.30;100665.88;5016470;28;20743;-73
2021/06/19 05:17:56;;;;;;;10.43;5.40;;;;;;;24.07;52.17;100672.53;4998798;28;20176;-73
2021/06/19 05:20:22;;;;;;;10.20;5.43;;;;;;;24.16;52.09;100674.22;4999058;28;20181;-73
2021/06/19 05:22:47;;;;;;;11.27;5.57;;;;;;;23.96;53.09;100680.03;5016433;28;20173;-73
2021/06/19 05:25:13;;;;;;;6.00;5.40;;;;;;;23.99;52.70;100687.03;4998685;28;20264;-72
2021/06/19 05:27:40;;;;;;;8.33;5.47;;;;;;;24.25;52.70;100679.50;5016261;28;20220;-72
2021/06/19 05:30:06;;;;;;;7.20;5.27;;;;;;;24.39;52.24;100672.50;4998959;28;20177;-73
2021/06/19 05:32:31;;;;;;;9.03;5.47;;;;;;;24.45;51.88;100669.06;4998670;28;20208;-73
2021/06/19 05:34:56;;;;;;;8.97;5.23;;;;;;;24.23;52.67;100658.91;5016863;28;20173;-73
2021/06/19 05:37:22;;;;;;;12.13;5.70;;;;;;;24.47;53.54;100666.19;5016240;28;20728;-72
2021/06/19 05:39:47;;;;;;;6.60;5.40;;;;;;;24.63;52.19;100666.13;5016394;28;20169;-73
2021/06/19 05:42:12;;;;;;;9.17;5.27;;;;;;;24.85;52.26;100669.94;4982935;28;20173;-73
2021/06/19 05:44:37;;;;;;;7.00;5.20;;;;;;;24.75;51.53;100672.06;5017011;28;20172;-73
2021/06/19 05:47:03;;;;;;;7.43;4.67;;;;;;;24.80;51.23;100673.22;5000864;28;20197;-73
2021/06/19 05:49:28;;;;;;;7.73;5.33;;;;;;;24.89;51.16;100674.88;5011113;28;20184;-73
2021/06/19 05:51:53;;;;;;;9.50;5.60;;;;;;;24.97;50.47;100674.00;5037517;28;20180;-73
2021/06/19 05:54:19;;;;;;;9.47;5.60;;;;;;;24.94;50.05;100675.22;5036324;28;20169;-73
2021/06/19 05:56:44;;;;;;;9.97;5.43;;;;;;;24.94;50.64;100677.09;5031500;28;20235;-72
2021/06/19 05:59:09;;;;;;;9.23;5.17;;;;;;;25.00;49.94;100672.84;5016442;28;20533;-73
2021/06/19 06:01:35;;;;;;;7.37;5.13;;;;;;;25.12;50.40;100680.44;4998493;28;20177;-73
2021/06/19 06:04:00;;;;;;;6.40;5.50;;;;;;;25.32;50.07;100677.25;5016251;28;20173;-73
2021/06/19 06:06:26;;;;;;;7.03;5.07;;;;;;;25.41;49.63;100674.28;4998019;28;20550;-73
2021/06/19 06:08:51;;;;;;;6.70;4.87;;;;;;;25.49;49.06;100684.31;4998340;28;20185;-73
2021/06/19 06:11:17;;;;;;;8.13;5.70;;;;;;;25.36;49.27;100679.44;5015532;28;20180;-73
2021/06/19 06:13:43;;;;;;;8.10;5.20;;;;;;;25.52;49.70;100683.94;5015439;28;20177;-73
2021/06/19 06:16:08;;;;;;;6.60;5.30;;;;;;;25.55;49.56;100686.31;5015500;28;20185;-72
2021/06/19 06:18:33;;;;;;;7.50;5.30;;;;;;;25.72;49.50;100685.19;4997821;28;20177;-72
2021/06/19 06:20:59;;;;;;;7.27;5.30;;;;;;;25.94;48.49;100682.63;4997527;28;20180;-73
2021/06/19 06:23:24;;;;;;;10.57;5.20;;;;;;;25.88;48.93;100681.47;5015357;28;20223;-74
2021/06/19 06:25:50;;;;;;;7.97;5.83;;;;;;;25.78;48.44;100687.19;5015092;28;20565;-72
2021/06/19 06:28:16;;;;;;;10.10;5.73;;;;;;;25.62;48.86;100691.88;4997923;28;20181;-72
2021/06/19 06:30:41;;;;;;;7.83;5.20;;;;;;;25.71;49.62;100678.03;4997606;28;20185;-72
2021/06/19 06:33:06;;;;;;;11.20;5.33;;;;;;;25.73;48.60;100680.59;4997624;28;20188;-73
2021/06/19 06:35:32;;;;;;;10.13;5.87;;;;;;;25.99;48.93;100685.63;5015993;28;20224;-70
2021/06/19 06:37:57;;;;;;;6.90;5.90;;;;;;;26.31;48.44;100674.38;4999057;28;20173;-73
2021/06/19 06:40:22;;;;;;;8.33;5.23;;;;;;;26.40;47.68;100672.47;5014709;28;20252;-72
2021/06/19 06:42:48;;;;;;;5.23;4.73;;;;;;;26.37;49.10;100681.88;4997233;28;20177;-72
2021/06/19 06:45:14;;;;;;;8.03;5.20;;;;;;;26.35;48.74;100670.28;4997644;28;20179;-72
2021/06/19 06:47:40;;;;;;;5.67;5.07;;;;;;;26.54;48.29;100682.56;4997138;28;20227;-73
2021/06/19 06:50:06;;;;;;;9.90;5.20;;;;;;;26.67;47.91;100681.88;4997499;28;20204;-73
2021/06/19 06:52:32;;;;;;;6.50;5.80;;;;;;;26.58;48.53;100683.03;5014365;28;20616;-73
2021/06/19 06:54:58;;;;;;;5.80;5.23;;;;;;;26.73;48.13;100692.06;4997515;28;20622;-73
2021/06/19 06:57:23;;;;;;;6.53;5.57;;;;;;;26.83;47.57;100683.59;4980769;28;20227;-73
2021/06/19 06:59:48;;;;;;;5.97;5.33;;;;;;;26.99;47.41;100684.25;4996164;28;20177;-73
2021/06/19 07:02:14;;;;;;;5.90;5.13;;;;;;;27.00;46.77;100683.22;5014444;28;20168;-74
2021/06/19 07:04:39;;;;;;;6.20;5.27;;;;;;;26.94;46.69;100680.38;5014445;28;20195;-73
2021/06/19 07:07:04;;;;;;;9.13;5.20;;;;;;;27.07;47.01;100686.88;4996359;28;20209;-73
2021/06/19 07:09:29;;;;;;;7.53;5.70;;;;;;;27.24;46.96;100686.66;5014231;28;20531;-73
2021/06/19 07:11:55;;;;;;;12.23;5.60;;;;;;;27.12;46.82;100699.13;5014733;28;20173;-74
2021/06/19 07:14:20;;;;;;;6.50;5.53;;;;;;;27.28;46.32;100687.97;5014279;28;20646;-73
2021/06/19 07:16:45;;;;;;;6.87;5.30;;;;;;;27.41;46.03;100693.59;4996614;28;20699;-73
2021/06/19 07:19:11;;;;;;;6.80;5.47;;;;;;;27.43;45.22;100688.75;5015182;28;20181;-73
2021/06/19 07:21:36;;;;;;;15.77;5.57;;;;;;;27.48;45.61;100694.50;4996793;28;20169;-71
2021/06/19 07:24:01;;;;;;;8.03;4.93;;;;;;;27.63;46.17;100687.13;4997866;28;20177;-70
2021/06/19 07:26:27;;;;;;;5.43;4.93;;;;;;;27.69;45.25;100697.31;4996739;28;20282;-70
2021/06/19 07:28:52;;;;;;;13.00;5.67;;;;;;;27.45;45.22;100699.53;4997562;28;20181;-71
2021/06/19 07:31:17;;;;;;;9.70;5.77;;;;;;;27.65;45.72;100709.72;5014435;28;20173;-71
2021/06/19 07:33:43;;;;;;;10.47;6.07;;;;;;;27.69;44.69;100702.78;5014536;28;20188;-70
2021/06/19 07:36:08;;;;;;;6.60;5.07;;;;;;;27.63;45.49;100700.84;5014292;28;20330;-70
2021/06/19 07:38:34;;;;;;;8.40;5.17;;;;;;;27.87;44.86;100712.44;4998181;28;20169;-71
2021/06/19 07:40:59;;;;;;;10.23;6.03;;;;;;;27.93;44.51;100704.28;5016362;28;20234;-70
2021/06/19 07:43:26;;;;;;;5.37;4.87;;;;;;;28.00;43.75;100693.38;5016042;28;20177;-71
2021/06/19 07:45:52;;;;;;;7.13;4.97;;;;;;;27.92;44.16;100701.75;4997597;28;20193;-71
2021/06/19 07:48:17;;;;;;;7.10;5.20;;;;;;;27.71;44.44;100700.69;4980940;28;20622;-71
2021/06/19 07:50:43;;;;;;;10.03;5.00;;;;;;;27.80;44.16;100706.03;4996787;28;20187;-71
2021/06/19 07:53:09;;;;;;;8.50;5.37;;;;;;;28.12;44.20;100690.94;4996755;28;20172;-71
2021/06/19 07:55:34;;;;;;;7.47;5.40;;;;;;;28.38;44.52;100687.56;5014216;28;20500;-71
2021/06/19 07:58:00;;;;;;;6.10;4.90;;;;;;;28.48;43.83;100690.81;4996232;28;20208;-70
2021/06/19 08:00:25;;;;;;;7.43;5.20;;;;;;;28.46;43.89;100692.91;4979951;28;20311;-71
2021/06/19 08:02:51;;;;;;;8.23;5.20;;;;;;;28.79;43.31;100698.59;4996042;28;20177;-70
2021/06/19 08:05:17;;;;;;;6.50;5.53;;;;;;;28.85;43.36;100695.91;4996182;28;20808;-70
2021/06/19 08:07:42;;;;;;;6.80;5.67;;;;;;;28.98;43.14;100697.88;5014721;28;20341;-72
2021/06/19 08:10:08;;;;;;;5.90;5.03;;;;;;;29.19;42.45;100703.25;5013346;28;20196;-71
2021/06/19 08:12:35;;;;;;;10.20;5.10;;;;;;;29.11;42.17;100694.34;4995829;28;20181;-76
2021/06/19 08:15:01;;;;;;;10.57;4.93;;;;;;;29.11;41.80;100686.94;5013427;28;20663;-73
2021/06/19 08:17:26;;;;;;;8.30;4.43;;;;;;;28.94;41.99;100688.34;4996082;28;20263;-74
2021/06/19 08:19:51;;;;;;;6.93;5.13;;;;;;;28.78;42.26;100692.25;5013417;28;20169;-75
2021/06/19 08:22:17;;;;;;;8.10;5.07;;;;;;;29.20;42.55;100693.09;4995770;28;20175;-73
2021/06/19 08:24:43;;;;;;;7.57;4.53;;;;;;;29.20;40.71;100685.72;5013443;28;20169;-72
2021/06/19 08:27:09;;;;;;;7.87;4.53;;;;;;;29.21;40.32;100686.56;5013406;28;20538;-73
2021/06/19 08:29:35;;;;;;;7.30;4.37;;;;;;;29.43;40.57;100676.28;4995887;28;20188;-73
2021/06/19 08:32:00;;;;;;;7.67;4.53;;;;;;;29.37;39.96;100669.72;5013603;28;20172;-74
2021/06/19 08:34:26;;;;;;;9.07;4.43;;;;;;;29.26;40.26;100681.28;4996063;28;20180;-72
2021/06/19 08:36:51;;;;;;;5.30;4.45;;;;;;;29.48;39.89;100674.63;4996502;28;20205;-71
2021/06/19 08:39:16;;;;;;;9.70;5.53;;;;;;;29.21;40.69;100670.91;5013581;28;20173;-72
2021/06/19 08:41:48;;;;;;;6.13;4.50;;;;;;;29.36;40.21;100675.38;4996276;28;20602;-74
2021/06/19 08:44:20;;;;;;;5.37;4.80;;;;;;;29.63;39.54;100673.59;4996789;28;20614;-72
2021/06/19 08:46:45;;;;;;;8.80;4.53;;;;;;;29.61;39.44;100678.44;4995993;28;20291;-73
2021/06/19 08:49:11;;;;;;;6.10;4.67;;;;;;;29.91;39.06;100674.25;4995831;28;20193;-73
2021/06/19 08:51:38;;;;;;;5.47;4.07;;;;;;;29.98;38.86;100679.75;4995726;28;20255;-74
2021/06/19 08:54:03;;;;;;;5.20;4.45;;;;;;;30.30;37.77;100686.31;5013177;28;20173;-73
2021/06/19 08:56:29;;;;;;;6.78;4.20;;;;;;;30.35;38.47;100683.78;4995477;28;20208;-73
2021/06/19 08:58:54;;;;;;;6.88;4.70;;;;;;;30.06;37.64;100679.56;5013108;28;20744;-73
2021/06/19 09:01:19;;;;;;;9.63;4.35;;;;;;;30.17;38.53;100674.28;5013756;28;20185;-73
2021/06/19 09:03:45;;;;;;;8.45;4.72;;;;;;;30.11;38.23;100675.13;5013499;28;20581;-74
2021/06/19 09:06:22;;;;;;;7.82;4.32;;;;;;;30.39;37.91;100677.63;5012859;28;20240;-74
2021/06/19 09:09:06;;;;;;;5.68;4.88;;;;;;;30.55;37.67;100681.84;5013670;28;20270;-74
2021/06/19 09:11:36;;;;;;;8.18;4.45;;;;;;;30.50;38.35;100670.63;5013384;28;20173;-74
2021/06/19 09:14:04;;;;;;;7.10;4.45;;;;;;;30.58;37.69;100664.03;5013289;28;20180;-73
2021/06/19 09:16:29;;;;;;;7.03;4.00;;;;;;;30.60;36.59;100660.03;5012983;28;20189;-73
2021/06/19 09:18:54;;;;;;;5.07;4.40;;;;;;;30.75;37.07;100666.13;4995409;28;20537;-73
2021/06/19 09:21:27;;;;;;;5.70;4.28;;;;;;;30.97;36.24;100668.59;4995210;28;20177;-73
2021/06/19 09:23:52;;;;;;;6.45;4.20;;;;;;;30.83;36.03;100664.19;4998679;28;20161;-73
2021/06/19 09:26:23;;;;;;;6.97;4.38;;;;;;;30.93;35.99;100667.34;5016323;28;20200;-73
2021/06/19 09:29:09;;;;;;;4.88;4.45;;;;;;;30.97;36.45;100671.34;4998859;28;20188;-73
2021/06/19 09:31:44;;;;;;;4.72;4.22;;;;;;;31.35;35.87;100669.50;5016479;28;20557;-73
2021/06/19 09:34:17;;;;;;;5.53;4.00;;;;;;;31.34;34.83;100670.56;5016391;28;20164;-73
2021/06/19 09:36:51;;;;;;;4.20;3.80;;;;;;;31.44;33.59;100666.47;5016173;28;20197;-74
2021/06/19 09:39:28;;;;;;;5.80;4.00;;;;;;;31.72;33.75;100669.72;4998651;28;20210;-73
2021/06/19 09:42:02;;;;;;;4.22;3.60;;;;;;;31.67;33.90;100664.00;4999322;28;20161;-74
2021/06/19 09:44:39;;;;;;;8.60;4.30;;;;;;;31.70;33.08;100669.94;4999008;28;20176;-74
2021/06/19 09:47:06;;;;;;;5.60;3.38;;;;;;;31.90;31.76;100667.00;4998500;28;20189;-74
2021/06/19 09:49:40;;;;;;;4.88;3.55;;;;;;;31.80;31.65;100671.34;5015919;28;20173;-73
2021/06/19 09:52:05;;;;;;;6.93;3.75;;;;;;;31.77;31.86;100677.31;4998540;28;20211;-75
2021/06/19 09:54:39;;;;;;;6.18;3.63;;;;;;;31.58;32.46;100671.66;4998330;28;20518;-73
2021/06/19 09:57:07;;;;;;;5.53;4.10;;;;;;;32.05;31.84;100663.94;4999495;28;20183;-74
2021/06/19 09:59:34;;;;;;;13.45;3.75;;;;;;;32.10;31.34;100660.50;5015777;28;20173;-72
2021/06/19 10:02:14;;;;;;;7.32;3.97;;;;;;;32.11;31.18;100663.03;5015697;28;20176;-74
2021/06/19 10:04:40;;;;;;;5.88;3.92;;;;;;;32.95;30.33;100653.22;4998447;28;20157;-73
2021/06/19 10:07:05;;;;;;;3.83;3.40;;;;;;;32.92;29.58;100659.22;5015844;28;20764;-73
2021/06/19 10:09:31;;;;;;;4.78;3.92;;;;;;;33.47;28.67;100662.78;5015979;28;20226;-73
2021/06/19 10:11:57;;;;;;;9.93;3.50;;;;;;;33.82;28.64;100662.00;4998392;28;20179;-73
2021/06/19 10:14:24;;;;;;;6.90;3.85;;;;;;;33.94;29.04;100662.91;5015747;28;20177;-74
2021/06/19 10:16:51;;;;;;;6.07;3.58;;;;;;;33.74;28.97;100662.34;4998171;28;20223;-74
2021/06/19 10:19:19;;;;;;;4.78;3.20;;;;;;;33.93;27.19;100664.00;5015525;28;20169;-74
2021/06/19 10:21:44;;;;;;;6.53;3.92;;;;;;;33.98;27.33;100660.50;4998697;28;20199;-74
2021/06/19 10:24:10;;;;;;;4.15;3.40;;;;;;;33.69;27.25;100660.28;5015480;28;20625;-74
2021/06/19 10:26:37;;;;;;;3.28;2.95;;;;;;;33.75;26.33;100653.78;4997883;28;20197;-73
2021/06/19 10:29:04;;;;;;;4.55;3.10;;;;;;;33.64;26.92;100660.16;4997966;28;20177;-74
2021/06/19 10:31:37;;;;;;;5.05;3.35;;;;;;;34.00;26.40;100655.56;4998155;28;20276;-74
2021/06/19 10:34:37;;;;;;;4.75;3.40;;;;;;;33.69;26.88;100653.91;5014923;28;20161;-74
2021/06/19 10:37:04;;;;;;;4.35;3.35;;;;;;;33.90;27.40;100649.78;5015580;28;20192;-72
2021/06/19 10:39:44;;;;;;;4.13;3.33;;;;;;;33.86;27.18;100653.03;4997536;28;20200;-74
2021/06/19 10:42:22;;;;;;;3.47;3.17;;;;;;;33.75;27.95;100648.25;5014993;28;20215;-75
2021/06/19 10:44:58;;;;;;;4.38;3.05;;;;;;;33.47;26.20;100640.63;4997492;28;20239;-74
2021/06/19 10:47:31;;;;;;;6.63;3.55;;;;;;;33.82;25.97;100642.63;4981561;28;20203;-74
2021/06/19 10:49:58;;;;;;;5.60;3.17;;;;;;;34.79;25.81;100643.00;4997983;28;20260;-75
2021/06/19 10:52:34;;;;;;;4.97;3.20;;;;;;;34.64;25.84;100631.59;4997558;28;20177;-75
2021/06/19 10:55:08;;;;;;;4.28;3.00;;;;;;;34.97;25.61;100644.81;5015072;28;20260;-74
2021/06/19 10:57:41;;;;;;;5.78;3.40;;;;;;;34.55;25.36;100638.59;5015447;28;20165;-75
2021/06/19 11:00:36;;;;;;;4.20;3.00;;;;;;;35.81;23.56;100650.56;5014651;28;20169;-73
2021/06/19 11:03:06;;;;;;;3.30;3.00;;;;;;;36.11;23.72;100650.25;4998302;28;20157;-75
2021/06/19 11:05:44;;;;;;;10.18;3.63;;;;;;;36.51;22.97;100644.50;4998215;28;20259;-75
2021/06/19 11:08:13;;;;;;;3.95;3.10;;;;;;;36.58;22.96;100637.66;5015829;28;20180;-75
2021/06/19 11:10:47;;;;;;;4.25;2.70;;;;;;;38.97;19.29;100638.97;5016144;28;20253;-71
2021/06/19 11:13:27;;;;;;;3.67;2.35;;;;;;;40.18;18.05;100640.31;5016637;28;20184;-75
2021/06/19 11:15:57;;;;;;;4.10;3.65;;;;;;;41.52;16.59;100637.53;5018020;28;20617;-74
2021/06/19 11:18:47;;;;;;;4.57;3.25;;;;;;;38.80;19.81;100633.63;5021140;28;20187;-74
2021/06/19 11:21:14;;;;;;;3.05;2.70;;;;;;;40.02;17.99;100639.50;5028053;28;20242;-74
2021/06/19 11:24:02;;;;;;;2.88;2.58;;;;;;;40.17;17.29;100641.44;5032276;28;20181;-75
2021/06/19 11:26:54;;;;;;;3.92;2.67;;;;;;;40.68;17.68;100630.13;5031017;28;20205;-74